Time;durP1;ratioP1;P1;durP2;ratioP2;P2;SDS_P1;SDS_P2;PMS_P1;PMS_P2;Temp;Humidity;BMP_temperature;BMP_pressure;BME280_temperature;BME280_humidity;BME280_pressure;Samples;Min_cycle;Max_cycle;Signal;HPM_P1;HPM_P2
2022/11/19 00:00:00;;;;;;;1.7;1.7;;;;;;;5.6;100.0;100570;;;;
2022/11/19 00:01:10;;;;;;;1.7;1.7;;;;;;;5.8;100.0;100560;;;;
2022/11/19 00:02:00;;;;;;;1.7;1.7;;;;;;;5.8;100.0;100560;;;;
2022/11/19 00:03:00;;;;;;;1.7;1.7;;;;;;;5.6;100.0;100570;;;;
2022/11/19 00:04:00;;;;;;;1.7;1.7;;;;;;;5.6;100.0;100570;;;;
2022/11/19 00:05:00;;;;;;;1.7;1.7;;;;;;;5.7;100.0;100570;;;;
2022/11/19 00:06:09;;;;;;;1.7;1.7;;;;;;;5.7;100.0;100570;;;;
2022/11/19 00:07:00;;;;;;;1.7;1.7;;;;;;;5.6;100.0;100570;;;;
2022/11/19 00:08:00;;;;;;;1.7;1.7;;;;;;;5.6;100.0;100570;;;;
2022/11/19 00:09:00;;;;;;;1.7;1.7;;;;;;;5.5;100.0;100580;;;;
2022/11/19 00:10:00;;;;;;;1.7;1.7;;;;;;;5.5;100.0;100580;;;;
2022/11/19 00:11:10;;;;;;;1.7;1.7;;;;;;;5.4;100.0;100570;;;;
2022/11/19 00:13:00;;;;;;;1.7;1.7;;;;;;;5.3;100.0;100570;;;;
2022/11/19 00:14:00;;;;;;;1.7;1.7;;;;;;;5.3;100.0;100570;;;;
2022/11/19 00:15:00;;;;;;;1.7;1.7;;;;;;;5.3;100.0;100580;;;;
2022/11/19 00:16:01;;;;;;;1.7;1.7;;;;;;;5.3;100.0;100580;;;;
2022/11/19 00:17:00;;;;;;;1.7;1.7;;;;;;;5.6;100.0;100580;;;;
2022/11/19 00:18:00;;;;;;;1.7;1.7;;;;;;;5.6;100.0;100580;;;;
2022/11/19 00:19:00;;;;;;;1.7;1.7;;;;;;;5.6;100.0;100580;;;;
2022/11/19 00:20:00;;;;;;;1.7;1.7;;;;;;;5.6;100.0;100580;;;;
2022/11/19 00:21:02;;;;;;;1.7;1.7;;;;;;;5.5;100.0;100590;;;;
2022/11/19 00:22:00;;;;;;;1.7;1.7;;;;;;;5.5;100.0;100590;;;;
2022/11/19 00:23:00;;;;;;;1.7;1.7;;;;;;;5.6;100.0;100590;;;;
2022/11/19 00:24:00;;;;;;;1.7;1.7;;;;;;;5.6;100.0;100590;;;;
2022/11/19 00:25:00;;;;;;;1.9;1.9;;;;;;;5.7;100.0;100580;;;;
2022/11/19 00:26:08;;;;;;;1.9;1.9;;;;;;;5.7;100.0;100580;;;;
2022/11/19 00:27:00;;;;;;;1.9;1.9;;;;;;;5.8;100.0;100580;;;;
2022/11/19 00:28:00;;;;;;;1.9;1.9;;;;;;;5.8;100.0;100580;;;;
2022/11/19 00:29:00;;;;;;;1.9;1.9;;;;;;;5.8;100.0;100580;;;;
2022/11/19 00:30:01;;;;;;;1.9;1.9;;;;;;;5.8;100.0;100580;;;;
2022/11/19 00:31:01;;;;;;;1.9;1.9;;;;;;;5.7;100.0;100580;;;;
2022/11/19 00:32:00;;;;;;;1.9;1.9;;;;;;;5.7;100.0;100580;;;;
2022/11/19 00:33:00;;;;;;;1.9;1.9;;;;;;;5.6;100.0;100580;;;;
2022/11/19 00:34:00;;;;;;;1.9;1.9;;;;;;;5.6;100.0;100580;;;;
2022/11/19 00:35:00;;;;;;;1.9;1.9;;;;;;;5.5;100.0;100590;;;;
2022/11/19 00:36:00;;;;;;;1.9;1.9;;;;;;;5.5;100.0;100590;;;;
2022/11/19 00:37:00;;;;;;;1.9;1.9;;;;;;;5.4;100.0;100590;;;;
2022/11/19 00:38:00;;;;;;;1.9;1.9;;;;;;;5.4;100.0;100590;;;;
2022/11/19 00:39:00;;;;;;;1.9;1.9;;;;;;;5.3;100.0;100590;;;;
2022/11/19 00:40:00;;;;;;;1.9;1.9;;;;;;;5.3;100.0;100590;;;;
2022/11/19 00:41:00;;;;;;;1.9;1.9;;;;;;;5.4;100.0;100590;;;;
2022/11/19 00:42:00;;;;;;;1.9;1.9;;;;;;;5.4;100.0;100590;;;;
2022/11/19 00:44:00;;;;;;;1.9;1.9;;;;;;;5.5;100.0;100590;;;;
2022/11/19 00:45:00;;;;;;;1.9;1.9;;;;;;;5.4;100.0;100600;;;;
2022/11/19 00:46:00;;;;;;;1.9;1.9;;;;;;;5.4;100.0;100600;;;;
2022/11/19 00:47:00;;;;;;;1.9;1.9;;;;;;;5.4;100.0;100600;;;;
2022/11/19 00:48:00;;;;;;;1.9;1.9;;;;;;;5.4;100.0;100600;;;;
2022/11/19 00:49:00;;;;;;;1.9;1.9;;;;;;;5.5;100.0;100600;;;;
2022/11/19 00:50:00;;;;;;;1.9;1.9;;;;;;;5.5;100.0;100600;;;;
2022/11/19 00:51:00;;;;;;;1.9;1.9;;;;;;;5.7;100.0;100600;;;;
2022/11/19 00:52:00;;;;;;;1.9;1.9;;;;;;;5.7;100.0;100600;;;;
2022/11/19 00:53:00;;;;;;;1.9;1.9;;;;;;;5.6;100.0;100600;;;;
2022/11/19 00:54:00;;;;;;;1.9;1.9;;;;;;;5.6;100.0;100600;;;;
2022/11/19 00:55:00;;;;;;;1.9;1.9;;;;;;;5.4;100.0;100600;;;;
2022/11/19 00:56:00;;;;;;;1.9;1.9;;;;;;;5.4;100.0;100600;;;;
2022/11/19 00:57:00;;;;;;;1.9;1.9;;;;;;;5.3;100.0;100600;;;;
2022/11/19 00:58:00;;;;;;;1.9;1.9;;;;;;;5.3;100.0;100600;;;;
2022/11/19 00:59:00;;;;;;;1.9;1.9;;;;;;;5.4;100.0;100600;;;;
2022/11/19 01:00:00;;;;;;;1.9;1.9;;;;;;;5.4;100.0;100600;;;;
2022/11/19 01:01:00;;;;;;;1.9;1.9;;;;;;;5.3;100.0;100600;;;;
2022/11/19 01:02:00;;;;;;;1.9;1.9;;;;;;;5.3;100.0;100600;;;;
2022/11/19 01:03:00;;;;;;;1.9;1.9;;;;;;;5.1;100.0;100610;;;;
2022/11/19 01:04:00;;;;;;;1.9;1.9;;;;;;;5.1;100.0;100610;;;;
2022/11/19 01:05:00;;;;;;;1.8;1.8;;;;;;;5.2;100.0;100600;;;;
2022/11/19 01:06:00;;;;;;;1.8;1.8;;;;;;;5.2;100.0;100600;;;;
2022/11/19 01:07:00;;;;;;;1.8;1.8;;;;;;;5.0;100.0;100600;;;;
2022/11/19 01:08:00;;;;;;;1.8;1.8;;;;;;;5.0;100.0;100600;;;;
2022/11/19 01:09:00;;;;;;;1.8;1.8;;;;;;;5.1;100.0;100600;;;;
2022/11/19 01:10:00;;;;;;;1.8;1.8;;;;;;;5.1;100.0;100600;;;;
2022/11/19 01:11:04;;;;;;;1.8;1.8;;;;;;;5.0;100.0;100610;;;;
2022/11/19 01:12:00;;;;;;;1.8;1.8;;;;;;;5.0;100.0;100610;;;;
2022/11/19 01:14:00;;;;;;;1.8;1.8;;;;;;;5.1;100.0;100610;;;;
2022/11/19 01:15:00;;;;;;;1.8;1.8;;;;;;;5.1;100.0;100610;;;;
2022/11/19 01:16:01;;;;;;;1.8;1.8;;;;;;;5.1;100.0;100610;;;;
2022/11/19 01:17:00;;;;;;;1.8;1.8;;;;;;;5.0;100.0;100610;;;;
2022/11/19 01:18:00;;;;;;;1.8;1.8;;;;;;;5.0;100.0;100610;;;;
2022/11/19 01:19:00;;;;;;;1.8;1.8;;;;;;;5.1;100.0;100610;;;;
2022/11/19 01:20:00;;;;;;;1.8;1.8;;;;;;;5.1;100.0;100610;;;;
2022/11/19 01:21:00;;;;;;;1.8;1.8;;;;;;;5.1;100.0;100620;;;;
2022/11/19 01:22:00;;;;;;;1.8;1.8;;;;;;;5.1;100.0;100620;;;;
2022/11/19 01:23:00;;;;;;;1.8;1.8;;;;;;;5.1;100.0;100620;;;;
2022/11/19 01:24:00;;;;;;;1.8;1.8;;;;;;;5.1;100.0;100620;;;;
2022/11/19 01:25:00;;;;;;;1.8;1.8;;;;;;;5.3;100.0;100620;;;;
2022/11/19 01:26:00;;;;;;;1.8;1.8;;;;;;;5.3;100.0;100620;;;;
2022/11/19 01:27:00;;;;;;;1.8;1.8;;;;;;;5.4;100.0;100620;;;;
2022/11/19 01:28:00;;;;;;;1.8;1.8;;;;;;;5.4;100.0;100620;;;;
2022/11/19 01:29:00;;;;;;;1.8;1.8;;;;;;;5.1;100.0;100620;;;;
2022/11/19 01:30:00;;;;;;;1.8;1.8;;;;;;;5.1;100.0;100620;;;;
2022/11/19 01:31:05;;;;;;;1.8;1.8;;;;;;;5.1;100.0;100630;;;;
2022/11/19 01:32:00;;;;;;;1.8;1.8;;;;;;;5.1;100.0;100630;;;;
2022/11/19 01:33:00;;;;;;;1.8;1.8;;;;;;;5.2;100.0;100630;;;;
2022/11/19 01:34:00;;;;;;;1.8;1.8;;;;;;;5.2;100.0;100630;;;;
2022/11/19 01:35:00;;;;;;;1.8;1.8;;;;;;;5.1;100.0;100630;;;;
2022/11/19 01:36:01;;;;;;;1.8;1.8;;;;;;;5.1;100.0;100630;;;;
2022/11/19 01:37:00;;;;;;;1.8;1.8;;;;;;;5.0;100.0;100630;;;;
2022/11/19 01:38:00;;;;;;;1.8;1.8;;;;;;;5.0;100.0;100630;;;;
2022/11/19 01:39:00;;;;;;;1.8;1.8;;;;;;;5.2;100.0;100630;;;;
2022/11/19 01:40:00;;;;;;;1.8;1.8;;;;;;;5.2;100.0;100630;;;;
2022/11/19 01:41:00;;;;;;;1.8;1.8;;;;;;;5.2;100.0;100630;;;;
2022/11/19 01:42:00;;;;;;;1.8;1.8;;;;;;;5.2;100.0;100630;;;;
2022/11/19 01:43:00;;;;;;;1.8;1.8;;;;;;;5.0;100.0;100640;;;;
2022/11/19 01:44:01;;;;;;;1.7;1.7;;;;;;;5.0;100.0;100640;;;;
2022/11/19 01:45:02;;;;;;;1.7;1.7;;;;;;;5.0;100.0;100640;;;;
2022/11/19 01:46:00;;;;;;;1.7;1.7;;;;;;;5.0;100.0;100640;;;;
2022/11/19 01:47:00;;;;;;;1.7;1.7;;;;;;;5.0;100.0;100640;;;;
2022/11/19 01:48:05;;;;;;;1.7;1.7;;;;;;;5.0;100.0;100640;;;;
2022/11/19 01:49:00;;;;;;;1.7;1.7;;;;;;;4.7;100.0;100630;;;;
2022/11/19 01:50:00;;;;;;;1.7;1.7;;;;;;;4.7;100.0;100630;;;;
2022/11/19 01:51:03;;;;;;;1.7;1.7;;;;;;;4.7;100.0;100640;;;;
2022/11/19 01:52:01;;;;;;;1.7;1.7;;;;;;;4.7;100.0;100640;;;;
2022/11/19 01:53:00;;;;;;;1.7;1.7;;;;;;;4.8;100.0;100640;;;;
2022/11/19 01:54:09;;;;;;;1.7;1.7;;;;;;;4.8;100.0;100640;;;;
2022/11/19 01:55:00;;;;;;;1.7;1.7;;;;;;;4.8;100.0;100650;;;;
2022/11/19 01:56:03;;;;;;;1.7;1.7;;;;;;;4.8;100.0;100650;;;;
2022/11/19 01:57:05;;;;;;;1.7;1.7;;;;;;;4.9;100.0;100650;;;;
2022/11/19 01:58:01;;;;;;;1.7;1.7;;;;;;;4.9;100.0;100650;;;;
2022/11/19 01:59:06;;;;;;;1.7;1.7;;;;;;;4.8;100.0;100650;;;;
2022/11/19 02:00:00;;;;;;;1.7;1.7;;;;;;;4.8;100.0;100650;;;;
2022/11/19 02:01:00;;;;;;;1.7;1.7;;;;;;;4.6;100.0;100660;;;;
2022/11/19 02:02:00;;;;;;;1.7;1.7;;;;;;;4.6;100.0;100660;;;;
2022/11/19 02:03:00;;;;;;;1.7;1.7;;;;;;;4.3;100.0;100660;;;;
2022/11/19 02:04:01;;;;;;;2.1;2.1;;;;;;;4.3;100.0;100660;;;;
2022/11/19 02:05:00;;;;;;;2.1;2.1;;;;;;;4.3;100.0;100660;;;;
2022/11/19 02:06:01;;;;;;;2.1;2.1;;;;;;;4.3;100.0;100660;;;;
2022/11/19 02:07:01;;;;;;;2.1;2.1;;;;;;;4.4;100.0;100660;;;;
2022/11/19 02:08:05;;;;;;;2.1;2.1;;;;;;;4.4;100.0;100660;;;;
2022/11/19 02:09:00;;;;;;;2.1;2.1;;;;;;;4.5;100.0;100670;;;;
2022/11/19 02:10:01;;;;;;;2.1;2.1;;;;;;;4.5;100.0;100670;;;;
2022/11/19 02:11:10;;;;;;;2.1;2.1;;;;;;;4.6;100.0;100670;;;;
2022/11/19 02:12:01;;;;;;;2.1;2.1;;;;;;;4.6;100.0;100670;;;;
2022/11/19 02:13:08;;;;;;;2.1;2.1;;;;;;;4.5;100.0;100660;;;;
2022/11/19 02:14:08;;;;;;;2.1;2.1;;;;;;;4.5;100.0;100660;;;;
2022/11/19 02:15:10;;;;;;;2.1;2.1;;;;;;;4.6;100.0;100670;;;;
2022/11/19 02:16:03;;;;;;;2.1;2.1;;;;;;;4.6;100.0;100670;;;;
2022/11/19 02:17:10;;;;;;;2.1;2.1;;;;;;;4.7;100.0;100660;;;;
2022/11/19 02:18:10;;;;;;;2.1;2.1;;;;;;;4.7;100.0;100660;;;;
2022/11/19 02:19:08;;;;;;;2.1;2.1;;;;;;;4.5;100.0;100660;;;;
2022/11/19 02:20:01;;;;;;;2.1;2.1;;;;;;;4.5;100.0;100660;;;;
2022/11/19 02:21:10;;;;;;;2.1;2.1;;;;;;;4.6;100.0;100670;;;;
2022/11/19 02:22:10;;;;;;;2.1;2.1;;;;;;;4.6;100.0;100670;;;;
2022/11/19 02:23:00;;;;;;;2.1;2.1;;;;;;;4.6;100.0;100670;;;;
2022/11/19 02:24:10;;;;;;;2.4;2.4;;;;;;;4.6;100.0;100670;;;;
2022/11/19 02:25:10;;;;;;;2.4;2.4;;;;;;;4.5;100.0;100670;;;;
2022/11/19 02:26:10;;;;;;;2.4;2.4;;;;;;;4.5;100.0;100670;;;;
2022/11/19 02:27:10;;;;;;;2.4;2.4;;;;;;;4.4;100.0;100680;;;;
2022/11/19 02:28:10;;;;;;;2.4;2.4;;;;;;;4.4;100.0;100680;;;;
2022/11/19 02:29:08;;;;;;;2.4;2.4;;;;;;;4.6;100.0;100680;;;;
2022/11/19 02:30:03;;;;;;;2.4;2.4;;;;;;;4.6;100.0;100680;;;;
2022/11/19 02:31:05;;;;;;;2.4;2.4;;;;;;;4.6;100.0;100680;;;;
2022/11/19 02:32:04;;;;;;;2.4;2.4;;;;;;;4.6;100.0;100680;;;;
2022/11/19 02:33:05;;;;;;;2.4;2.4;;;;;;;4.7;100.0;100680;;;;
2022/11/19 02:34:10;;;;;;;2.4;2.4;;;;;;;4.7;100.0;100680;;;;
2022/11/19 02:35:06;;;;;;;2.4;2.4;;;;;;;4.7;100.0;100670;;;;
2022/11/19 02:36:07;;;;;;;2.4;2.4;;;;;;;4.7;100.0;100670;;;;
2022/11/19 02:37:04;;;;;;;2.4;2.4;;;;;;;4.6;100.0;100670;;;;
2022/11/19 02:38:06;;;;;;;2.4;2.4;;;;;;;4.6;100.0;100670;;;;
2022/11/19 02:39:10;;;;;;;2.4;2.4;;;;;;;4.5;100.0;100670;;;;
2022/11/19 02:40:06;;;;;;;2.4;2.4;;;;;;;4.5;100.0;100670;;;;
2022/11/19 02:41:32;;;;;;;2.4;2.4;;;;;;;4.4;100.0;100680;;;;
2022/11/19 02:42:07;;;;;;;2.4;2.4;;;;;;;4.4;100.0;100680;;;;
2022/11/19 02:43:10;;;;;;;2.4;2.4;;;;;;;4.4;100.0;100680;;;;
2022/11/19 02:45:10;;;;;;;2.3;2.3;;;;;;;4.2;100.0;100680;;;;
2022/11/19 02:46:05;;;;;;;2.3;2.3;;;;;;;4.2;100.0;100680;;;;
2022/11/19 02:47:02;;;;;;;2.3;2.3;;;;;;;4.3;100.0;100680;;;;
2022/11/19 02:48:05;;;;;;;2.3;2.3;;;;;;;4.3;100.0;100680;;;;
2022/11/19 02:49:00;;;;;;;2.3;2.3;;;;;;;4.2;100.0;100680;;;;
2022/11/19 02:50:03;;;;;;;2.3;2.3;;;;;;;4.2;100.0;100680;;;;
2022/11/19 02:51:01;;;;;;;2.3;2.3;;;;;;;4.0;100.0;100680;;;;
2022/11/19 02:52:00;;;;;;;2.3;2.3;;;;;;;4.0;100.0;100680;;;;
2022/11/19 02:53:01;;;;;;;2.3;2.3;;;;;;;4.1;100.0;100680;;;;
2022/11/19 02:54:00;;;;;;;2.3;2.3;;;;;;;4.1;100.0;100680;;;;
2022/11/19 02:55:00;;;;;;;2.3;2.3;;;;;;;4.3;100.0;100680;;;;
2022/11/19 02:56:10;;;;;;;2.3;2.3;;;;;;;4.3;100.0;100680;;;;
2022/11/19 02:57:01;;;;;;;2.3;2.3;;;;;;;4.3;100.0;100680;;;;
2022/11/19 02:58:01;;;;;;;2.3;2.3;;;;;;;4.3;100.0;100680;;;;
2022/11/19 03:05:01;;;;;;;2.3;2.3;;;;;;;4.2;100.0;100680;;;;
2022/11/19 03:06:04;;;;;;;2.3;2.3;;;;;;;4.2;100.0;100680;;;;
2022/11/19 03:07:04;;;;;;;2.3;2.3;;;;;;;4.3;100.0;100670;;;;
2022/11/19 03:08:00;;;;;;;2.3;2.3;;;;;;;4.3;100.0;100670;;;;
2022/11/19 03:09:00;;;;;;;2.3;2.3;;;;;;;4.2;100.0;100670;;;;
2022/11/19 03:10:03;;;;;;;2.3;2.3;;;;;;;4.2;100.0;100670;;;;
2022/11/19 03:11:06;;;;;;;2.3;2.3;;;;;;;4.2;100.0;100670;;;;
2022/11/19 03:12:06;;;;;;;2.3;2.3;;;;;;;4.2;100.0;100670;;;;
2022/11/19 03:16:40;;;;;;;2.3;2.3;;;;;;;4.1;100.0;100680;;;;
2022/11/19 03:17:05;;;;;;;2.3;2.3;;;;;;;4.3;100.0;100680;;;;
2022/11/19 03:18:07;;;;;;;2.3;2.3;;;;;;;4.3;100.0;100680;;;;
2022/11/19 03:19:08;;;;;;;2.3;2.3;;;;;;;4.1;100.0;100680;;;;
2022/11/19 03:20:04;;;;;;;2.3;2.3;;;;;;;4.1;100.0;100680;;;;
2022/11/19 03:21:05;;;;;;;2.3;2.3;;;;;;;4.1;100.0;100680;;;;
2022/11/19 03:22:08;;;;;;;2.3;2.3;;;;;;;4.1;100.0;100680;;;;
2022/11/19 03:23:04;;;;;;;2.3;2.3;;;;;;;4.3;100.0;100690;;;;
2022/11/19 03:24:03;;;;;;;2.2;2.2;;;;;;;4.3;100.0;100690;;;;
2022/11/19 03:25:04;;;;;;;2.2;2.2;;;;;;;4.2;100.0;100690;;;;
2022/11/19 03:26:02;;;;;;;2.2;2.2;;;;;;;4.2;100.0;100690;;;;
2022/11/19 03:27:07;;;;;;;2.2;2.2;;;;;;;4.2;100.0;100690;;;;
2022/11/19 03:28:02;;;;;;;2.2;2.2;;;;;;;4.2;100.0;100690;;;;
2022/11/19 03:29:02;;;;;;;2.2;2.2;;;;;;;4.2;100.0;100690;;;;
2022/11/19 03:30:00;;;;;;;2.2;2.2;;;;;;;4.2;100.0;100690;;;;
2022/11/19 03:31:01;;;;;;;2.2;2.2;;;;;;;4.3;100.0;100690;;;;
2022/11/19 03:32:03;;;;;;;2.2;2.2;;;;;;;4.3;100.0;100690;;;;
2022/11/19 03:33:03;;;;;;;2.2;2.2;;;;;;;4.2;100.0;100700;;;;
2022/11/19 03:34:03;;;;;;;2.2;2.2;;;;;;;4.2;100.0;100700;;;;
2022/11/19 03:35:03;;;;;;;2.2;2.2;;;;;;;4.1;100.0;100690;;;;
2022/11/19 03:36:03;;;;;;;2.2;2.2;;;;;;;4.1;100.0;100690;;;;
2022/11/19 03:37:01;;;;;;;2.2;2.2;;;;;;;3.9;100.0;100700;;;;
2022/11/19 03:38:03;;;;;;;2.2;2.2;;;;;;;3.9;100.0;100700;;;;
2022/11/19 03:39:02;;;;;;;2.2;2.2;;;;;;;4.1;100.0;100700;;;;
2022/11/19 03:40:02;;;;;;;2.2;2.2;;;;;;;4.1;100.0;100700;;;;
2022/11/19 03:41:02;;;;;;;2.2;2.2;;;;;;;4.1;100.0;100700;;;;
2022/11/19 03:42:00;;;;;;;2.2;2.2;;;;;;;4.1;100.0;100700;;;;
2022/11/19 03:43:02;;;;;;;2.2;2.2;;;;;;;4.3;100.0;100700;;;;
2022/11/19 03:44:03;;;;;;;3.0;2.9;;;;;;;4.3;100.0;100700;;;;
2022/11/19 03:45:03;;;;;;;3.0;2.9;;;;;;;4.2;100.0;100700;;;;
2022/11/19 03:46:01;;;;;;;3.0;2.9;;;;;;;4.2;100.0;100700;;;;
2022/11/19 03:47:03;;;;;;;3.0;2.9;;;;;;;4.3;100.0;100700;;;;
2022/11/19 03:48:01;;;;;;;3.0;2.9;;;;;;;4.3;100.0;100700;;;;
2022/11/19 03:49:01;;;;;;;3.0;2.9;;;;;;;4.1;100.0;100700;;;;
2022/11/19 03:50:04;;;;;;;3.0;2.9;;;;;;;4.1;100.0;100700;;;;
2022/11/19 03:51:06;;;;;;;3.0;2.9;;;;;;;4.0;100.0;100700;;;;
2022/11/19 03:52:09;;;;;;;3.0;2.9;;;;;;;4.0;100.0;100700;;;;
2022/11/19 03:53:04;;;;;;;3.0;2.9;;;;;;;4.1;100.0;100710;;;;
2022/11/19 03:54:00;;;;;;;3.0;2.9;;;;;;;4.1;100.0;100710;;;;
2022/11/19 03:55:00;;;;;;;3.0;2.9;;;;;;;4.2;100.0;100700;;;;
2022/11/19 03:56:03;;;;;;;3.0;2.9;;;;;;;4.2;100.0;100700;;;;
2022/11/19 03:57:00;;;;;;;3.0;2.9;;;;;;;4.1;100.0;100710;;;;
2022/11/19 03:58:02;;;;;;;3.0;2.9;;;;;;;4.1;100.0;100710;;;;
2022/11/19 03:59:02;;;;;;;3.0;2.9;;;;;;;3.9;100.0;100700;;;;
2022/11/19 04:00:00;;;;;;;3.0;2.9;;;;;;;3.9;100.0;100700;;;;
2022/11/19 04:01:00;;;;;;;3.0;2.9;;;;;;;3.7;100.0;100710;;;;
2022/11/19 04:02:02;;;;;;;3.0;2.9;;;;;;;3.7;100.0;100710;;;;
2022/11/19 04:03:00;;;;;;;3.0;2.9;;;;;;;3.6;100.0;100700;;;;
2022/11/19 04:05:00;;;;;;;2.3;2.3;;;;;;;3.7;100.0;100710;;;;
2022/11/19 04:06:00;;;;;;;2.3;2.3;;;;;;;3.7;100.0;100710;;;;
2022/11/19 04:07:00;;;;;;;2.3;2.3;;;;;;;3.9;100.0;100710;;;;
2022/11/19 04:08:00;;;;;;;2.3;2.3;;;;;;;3.9;100.0;100710;;;;
2022/11/19 04:09:00;;;;;;;2.3;2.3;;;;;;;3.9;100.0;100710;;;;
2022/11/19 04:10:00;;;;;;;2.3;2.3;;;;;;;3.9;100.0;100710;;;;
2022/11/19 04:11:00;;;;;;;2.3;2.3;;;;;;;4.0;100.0;100710;;;;
2022/11/19 04:12:00;;;;;;;2.3;2.3;;;;;;;4.0;100.0;100710;;;;
2022/11/19 04:13:00;;;;;;;2.3;2.3;;;;;;;4.1;100.0;100710;;;;
2022/11/19 04:14:00;;;;;;;2.3;2.3;;;;;;;4.1;100.0;100710;;;;
2022/11/19 04:15:00;;;;;;;2.3;2.3;;;;;;;3.9;100.0;100710;;;;
2022/11/19 04:16:00;;;;;;;2.3;2.3;;;;;;;3.9;100.0;100710;;;;
2022/11/19 04:17:00;;;;;;;2.3;2.3;;;;;;;3.7;100.0;100720;;;;
2022/11/19 04:18:00;;;;;;;2.3;2.3;;;;;;;3.7;100.0;100720;;;;
2022/11/19 04:19:00;;;;;;;2.3;2.3;;;;;;;3.8;100.0;100730;;;;
2022/11/19 04:20:00;;;;;;;2.3;2.3;;;;;;;3.8;100.0;100730;;;;
2022/11/19 04:21:00;;;;;;;2.3;2.3;;;;;;;3.7;100.0;100730;;;;
2022/11/19 04:22:00;;;;;;;2.3;2.3;;;;;;;3.7;100.0;100730;;;;
2022/11/19 04:23:00;;;;;;;2.3;2.3;;;;;;;3.6;100.0;100730;;;;
2022/11/19 04:24:00;;;;;;;2.3;2.3;;;;;;;3.6;100.0;100730;;;;
2022/11/19 04:25:00;;;;;;;2.3;2.3;;;;;;;3.8;100.0;100730;;;;
2022/11/19 04:26:00;;;;;;;2.3;2.3;;;;;;;3.8;100.0;100730;;;;
2022/11/19 04:27:00;;;;;;;2.3;2.3;;;;;;;3.9;100.0;100740;;;;
2022/11/19 04:28:00;;;;;;;2.3;2.3;;;;;;;3.9;100.0;100740;;;;
2022/11/19 04:29:00;;;;;;;2.3;2.3;;;;;;;3.8;100.0;100750;;;;
2022/11/19 04:30:00;;;;;;;2.3;2.3;;;;;;;3.8;100.0;100750;;;;
2022/11/19 04:31:00;;;;;;;2.3;2.3;;;;;;;3.6;100.0;100740;;;;
2022/11/19 04:32:00;;;;;;;2.3;2.3;;;;;;;3.6;100.0;100740;;;;
2022/11/19 04:33:00;;;;;;;2.3;2.3;;;;;;;3.5;100.0;100740;;;;
2022/11/19 04:34:00;;;;;;;2.3;2.3;;;;;;;3.5;100.0;100740;;;;
2022/11/19 04:35:00;;;;;;;2.3;2.3;;;;;;;3.4;100.0;100750;;;;
2022/11/19 04:36:00;;;;;;;2.3;2.3;;;;;;;3.4;100.0;100750;;;;
2022/11/19 04:37:00;;;;;;;2.3;2.3;;;;;;;3.5;100.0;100750;;;;
2022/11/19 04:38:00;;;;;;;2.3;2.3;;;;;;;3.5;100.0;100750;;;;
2022/11/19 04:39:00;;;;;;;2.3;2.3;;;;;;;3.4;100.0;100750;;;;
2022/11/19 04:40:00;;;;;;;2.3;2.3;;;;;;;3.4;100.0;100750;;;;
2022/11/19 04:41:00;;;;;;;2.3;2.3;;;;;;;3.5;100.0;100750;;;;
2022/11/19 04:42:00;;;;;;;2.3;2.3;;;;;;;3.5;100.0;100750;;;;
2022/11/19 04:43:00;;;;;;;2.3;2.3;;;;;;;3.5;100.0;100750;;;;
2022/11/19 04:44:00;;;;;;;2.4;2.4;;;;;;;3.5;100.0;100750;;;;
2022/11/19 04:45:00;;;;;;;2.4;2.4;;;;;;;3.5;100.0;100750;;;;
2022/11/19 04:46:00;;;;;;;2.4;2.4;;;;;;;3.5;100.0;100750;;;;
2022/11/19 04:47:00;;;;;;;2.4;2.4;;;;;;;3.6;100.0;100750;;;;
2022/11/19 04:48:00;;;;;;;2.4;2.4;;;;;;;3.6;100.0;100750;;;;
2022/11/19 04:49:00;;;;;;;2.4;2.4;;;;;;;3.5;100.0;100760;;;;
2022/11/19 04:50:00;;;;;;;2.4;2.4;;;;;;;3.5;100.0;100760;;;;
2022/11/19 04:51:00;;;;;;;2.4;2.4;;;;;;;3.6;100.0;100750;;;;
2022/11/19 04:52:00;;;;;;;2.4;2.4;;;;;;;3.6;100.0;100750;;;;
2022/11/19 04:53:00;;;;;;;2.4;2.4;;;;;;;3.4;100.0;100760;;;;
2022/11/19 04:54:00;;;;;;;2.4;2.4;;;;;;;3.4;100.0;100760;;;;
2022/11/19 04:55:00;;;;;;;2.4;2.4;;;;;;;3.6;100.0;100760;;;;
2022/11/19 04:56:00;;;;;;;2.4;2.4;;;;;;;3.6;100.0;100760;;;;
2022/11/19 04:57:00;;;;;;;2.4;2.4;;;;;;;3.3;100.0;100760;;;;
2022/11/19 04:58:00;;;;;;;2.4;2.4;;;;;;;3.3;100.0;100760;;;;
2022/11/19 04:59:00;;;;;;;2.4;2.4;;;;;;;3.4;100.0;100760;;;;
2022/11/19 05:00:00;;;;;;;2.4;2.4;;;;;;;3.4;100.0;100760;;;;
2022/11/19 05:01:00;;;;;;;2.4;2.4;;;;;;;3.4;100.0;100760;;;;
2022/11/19 05:02:00;;;;;;;2.4;2.4;;;;;;;3.4;100.0;100760;;;;
2022/11/19 05:03:00;;;;;;;2.8;2.7;;;;;;;3.2;100.0;100750;;;;
2022/11/19 05:04:00;;;;;;;2.8;2.7;;;;;;;3.2;100.0;100750;;;;
2022/11/19 05:05:00;;;;;;;2.8;2.7;;;;;;;3.2;100.0;100750;;;;
2022/11/19 05:06:00;;;;;;;2.8;2.7;;;;;;;3.2;100.0;100750;;;;
2022/11/19 05:07:00;;;;;;;2.8;2.7;;;;;;;3.3;100.0;100760;;;;
2022/11/19 05:08:00;;;;;;;2.8;2.7;;;;;;;3.3;100.0;100760;;;;
2022/11/19 05:09:00;;;;;;;2.8;2.7;;;;;;;3.3;100.0;100760;;;;
2022/11/19 05:10:00;;;;;;;2.8;2.7;;;;;;;3.3;100.0;100760;;;;
2022/11/19 05:11:00;;;;;;;2.8;2.7;;;;;;;3.3;100.0;100760;;;;
2022/11/19 05:12:00;;;;;;;2.8;2.7;;;;;;;3.3;100.0;100760;;;;
2022/11/19 05:13:00;;;;;;;2.8;2.7;;;;;;;3.2;100.0;100760;;;;
2022/11/19 05:14:00;;;;;;;2.8;2.7;;;;;;;3.2;100.0;100760;;;;
2022/11/19 05:15:00;;;;;;;2.8;2.7;;;;;;;3.2;100.0;100760;;;;
2022/11/19 05:16:00;;;;;;;2.8;2.7;;;;;;;3.2;100.0;100760;;;;
2022/11/19 05:17:00;;;;;;;2.8;2.7;;;;;;;3.3;100.0;100770;;;;
2022/11/19 05:18:00;;;;;;;2.8;2.7;;;;;;;3.3;100.0;100770;;;;
2022/11/19 05:19:00;;;;;;;2.8;2.7;;;;;;;3.4;100.0;100770;;;;
2022/11/19 05:20:00;;;;;;;2.8;2.7;;;;;;;3.4;100.0;100770;;;;
2022/11/19 05:21:00;;;;;;;2.8;2.7;;;;;;;3.3;100.0;100770;;;;
2022/11/19 05:22:00;;;;;;;2.8;2.7;;;;;;;3.3;100.0;100770;;;;
2022/11/19 05:23:00;;;;;;;2.6;2.5;;;;;;;3.3;100.0;100780;;;;
2022/11/19 05:24:00;;;;;;;2.6;2.5;;;;;;;3.3;100.0;100780;;;;
2022/11/19 05:25:00;;;;;;;2.6;2.5;;;;;;;3.2;100.0;100780;;;;
2022/11/19 05:26:00;;;;;;;2.6;2.5;;;;;;;3.2;100.0;100780;;;;
2022/11/19 05:27:00;;;;;;;2.6;2.5;;;;;;;3.2;100.0;100780;;;;
2022/11/19 05:28:00;;;;;;;2.6;2.5;;;;;;;3.2;100.0;100780;;;;
2022/11/19 05:29:00;;;;;;;2.6;2.5;;;;;;;3.1;100.0;100790;;;;
2022/11/19 05:30:00;;;;;;;2.6;2.5;;;;;;;3.1;100.0;100790;;;;
2022/11/19 05:31:00;;;;;;;2.6;2.5;;;;;;;3.3;100.0;100790;;;;
2022/11/19 05:32:00;;;;;;;2.6;2.5;;;;;;;3.3;100.0;100790;;;;
2022/11/19 05:33:00;;;;;;;2.6;2.5;;;;;;;3.2;100.0;100790;;;;
2022/11/19 05:34:00;;;;;;;2.6;2.5;;;;;;;3.2;100.0;100790;;;;
2022/11/19 05:35:00;;;;;;;2.6;2.5;;;;;;;3.4;100.0;100800;;;;
2022/11/19 05:36:00;;;;;;;2.6;2.5;;;;;;;3.4;100.0;100800;;;;
2022/11/19 05:37:00;;;;;;;2.6;2.5;;;;;;;3.4;100.0;100800;;;;
2022/11/19 05:38:00;;;;;;;2.6;2.5;;;;;;;3.4;100.0;100800;;;;
2022/11/19 05:39:00;;;;;;;2.6;2.5;;;;;;;3.5;100.0;100800;;;;
2022/11/19 05:40:00;;;;;;;2.6;2.5;;;;;;;3.5;100.0;100800;;;;
2022/11/19 05:41:00;;;;;;;2.6;2.5;;;;;;;3.2;100.0;100800;;;;
2022/11/19 05:42:00;;;;;;;2.6;2.5;;;;;;;3.2;100.0;100800;;;;
2022/11/19 05:43:04;;;;;;;2.8;2.7;;;;;;;3.1;100.0;100800;;;;
2022/11/19 05:44:00;;;;;;;2.8;2.7;;;;;;;3.1;100.0;100800;;;;
2022/11/19 05:45:00;;;;;;;2.8;2.7;;;;;;;3.0;100.0;100810;;;;
2022/11/19 05:46:00;;;;;;;2.8;2.7;;;;;;;3.0;100.0;100810;;;;
2022/11/19 05:47:00;;;;;;;2.8;2.7;;;;;;;2.8;100.0;100810;;;;
2022/11/19 05:48:00;;;;;;;2.8;2.7;;;;;;;2.8;100.0;100810;;;;
2022/11/19 05:49:00;;;;;;;2.8;2.7;;;;;;;2.9;100.0;100810;;;;
2022/11/19 05:50:00;;;;;;;2.8;2.7;;;;;;;2.9;100.0;100810;;;;
2022/11/19 05:51:00;;;;;;;2.8;2.7;;;;;;;3.0;100.0;100820;;;;
2022/11/19 05:52:00;;;;;;;2.8;2.7;;;;;;;3.0;100.0;100820;;;;
2022/11/19 05:53:00;;;;;;;2.8;2.7;;;;;;;3.0;100.0;100810;;;;
2022/11/19 05:54:00;;;;;;;2.8;2.7;;;;;;;3.0;100.0;100810;;;;
2022/11/19 05:55:00;;;;;;;2.8;2.7;;;;;;;3.2;100.0;100820;;;;
2022/11/19 05:56:00;;;;;;;2.8;2.7;;;;;;;3.2;100.0;100820;;;;
2022/11/19 05:57:00;;;;;;;2.8;2.7;;;;;;;3.2;100.0;100820;;;;
2022/11/19 05:58:00;;;;;;;2.8;2.7;;;;;;;3.2;100.0;100820;;;;
2022/11/19 05:59:00;;;;;;;2.8;2.7;;;;;;;3.3;100.0;100820;;;;
2022/11/19 06:00:00;;;;;;;2.8;2.7;;;;;;;3.3;100.0;100820;;;;
2022/11/19 06:01:00;;;;;;;2.8;2.7;;;;;;;3.4;100.0;100820;;;;
2022/11/19 06:02:00;;;;;;;2.8;2.7;;;;;;;3.4;100.0;100820;;;;
2022/11/19 06:03:00;;;;;;;2.9;2.8;;;;;;;3.4;100.0;100820;;;;
2022/11/19 06:04:00;;;;;;;2.9;2.8;;;;;;;3.4;100.0;100820;;;;
2022/11/19 06:05:00;;;;;;;2.9;2.8;;;;;;;3.3;100.0;100830;;;;
2022/11/19 06:06:00;;;;;;;2.9;2.8;;;;;;;3.3;100.0;100830;;;;
2022/11/19 06:07:00;;;;;;;2.9;2.8;;;;;;;3.1;100.0;100830;;;;
2022/11/19 06:08:00;;;;;;;2.9;2.8;;;;;;;3.1;100.0;100830;;;;
2022/11/19 06:09:00;;;;;;;2.9;2.8;;;;;;;3.2;100.0;100830;;;;
2022/11/19 06:10:00;;;;;;;2.9;2.8;;;;;;;3.2;100.0;100830;;;;
2022/11/19 06:11:03;;;;;;;2.9;2.8;;;;;;;3.1;100.0;100840;;;;
2022/11/19 06:12:00;;;;;;;2.9;2.8;;;;;;;3.1;100.0;100840;;;;
2022/11/19 06:13:00;;;;;;;2.9;2.8;;;;;;;3.3;100.0;100830;;;;
2022/11/19 06:14:00;;;;;;;2.9;2.8;;;;;;;3.3;100.0;100830;;;;
2022/11/19 06:15:00;;;;;;;2.9;2.8;;;;;;;3.1;100.0;100840;;;;
2022/11/19 06:16:00;;;;;;;2.9;2.8;;;;;;;3.1;100.0;100840;;;;
2022/11/19 06:17:00;;;;;;;2.9;2.8;;;;;;;3.1;100.0;100840;;;;
2022/11/19 06:18:00;;;;;;;2.9;2.8;;;;;;;3.1;100.0;100840;;;;
2022/11/19 06:19:00;;;;;;;2.9;2.8;;;;;;;3.0;100.0;100840;;;;
2022/11/19 06:20:00;;;;;;;2.9;2.8;;;;;;;3.0;100.0;100840;;;;
2022/11/19 06:21:00;;;;;;;2.9;2.8;;;;;;;3.0;100.0;100840;;;;
2022/11/19 06:22:00;;;;;;;2.9;2.8;;;;;;;3.0;100.0;100840;;;;
2022/11/19 06:23:00;;;;;;;2.8;2.7;;;;;;;3.0;100.0;100840;;;;
2022/11/19 06:24:00;;;;;;;2.8;2.7;;;;;;;3.0;100.0;100840;;;;
2022/11/19 06:25:00;;;;;;;2.8;2.7;;;;;;;3.1;100.0;100850;;;;
2022/11/19 06:26:00;;;;;;;2.8;2.7;;;;;;;3.1;100.0;100850;;;;
2022/11/19 06:27:00;;;;;;;2.8;2.7;;;;;;;3.0;100.0;100850;;;;
2022/11/19 06:28:00;;;;;;;2.8;2.7;;;;;;;3.0;100.0;100850;;;;
2022/11/19 06:29:00;;;;;;;2.8;2.7;;;;;;;3.0;100.0;100850;;;;
2022/11/19 06:30:00;;;;;;;2.8;2.7;;;;;;;3.0;100.0;100850;;;;
2022/11/19 06:31:00;;;;;;;2.8;2.7;;;;;;;3.1;100.0;100850;;;;
2022/11/19 06:32:00;;;;;;;2.8;2.7;;;;;;;3.1;100.0;100850;;;;
2022/11/19 06:33:00;;;;;;;2.8;2.7;;;;;;;3.1;100.0;100850;;;;
2022/11/19 06:34:00;;;;;;;2.8;2.7;;;;;;;3.1;100.0;100850;;;;
2022/11/19 06:35:00;;;;;;;2.8;2.7;;;;;;;3.1;100.0;100860;;;;
2022/11/19 06:36:00;;;;;;;2.8;2.7;;;;;;;3.1;100.0;100860;;;;
2022/11/19 06:37:00;;;;;;;2.8;2.7;;;;;;;3.0;100.0;100860;;;;
2022/11/19 06:38:00;;;;;;;2.8;2.7;;;;;;;3.0;100.0;100860;;;;
2022/11/19 06:39:00;;;;;;;2.8;2.7;;;;;;;3.0;100.0;100860;;;;
2022/11/19 06:40:00;;;;;;;2.8;2.7;;;;;;;3.0;100.0;100860;;;;
2022/11/19 06:41:00;;;;;;;2.8;2.7;;;;;;;3.1;100.0;100870;;;;
2022/11/19 06:42:34;;;;;;;2.8;2.7;;;;;;;3.1;100.0;100870;;;;
2022/11/19 06:43:00;;;;;;;3.2;3.1;;;;;;;3.0;100.0;100870;;;;